Time;durP1;ratioP1;P1;durP2;ratioP2;P2;SDS_P1;SDS_P2;PMS_P1;PMS_P2;Temp;Humidity;BMP_temperature;BMP_pressure;BME280_temperature;BME280_humidity;BME280_pressure;Samples;Min_cycle;Max_cycle;Signal;HPM_P1;HPM_P2
2020/12/10 00:01:47;;;;;;;50.90;28.50;;;20.40;36.40;;;;;;5091625;28;19908;-69
2020/12/10 00:04:14;;;;;;;55.60;31.02;;;20.30;36.20;;;;;;5084200;28;20337;-68
2020/12/10 00:06:41;;;;;;;61.83;31.80;;;20.20;36.60;;;;;;5094330;28;20082;-69
2020/12/10 00:09:08;;;;;;;52.85;32.00;;;20.20;36.50;;;;;;5093443;28;20028;-69
2020/12/10 00:11:35;;;;;;;57.90;32.20;;;20.10;36.60;;;;;;5096231;28;20015;-69
2020/12/10 00:14:03;;;;;;;57.92;31.10;;;20.00;36.90;;;;;;5095708;28;20024;-69
2020/12/10 00:16:30;;;;;;;53.38;27.88;;;19.90;37.00;;;;;;5093090;28;20106;-69
2020/12/10 00:18:56;;;;;;;50.92;27.42;;;19.80;36.90;;;;;;5095998;28;20028;-69
2020/12/10 00:21:23;;;;;;;43.45;25.48;;;19.70;36.90;;;;;;5097808;28;20016;-69
2020/12/10 00:23:50;;;;;;;44.75;26.67;;;19.70;37.20;;;;;;5096682;28;20098;-69
2020/12/10 00:26:20;;;;;;;44.42;27.08;;;19.60;37.40;;;;;;5094546;28;20055;-68
2020/12/10 00:28:47;;;;;;;43.97;25.33;;;19.50;38.00;;;;;;5094084;28;20020;-69
2020/12/10 00:31:13;;;;;;;54.47;25.83;;;19.40;37.50;;;;;;5096147;28;20032;-68
2020/12/10 00:33:40;;;;;;;50.35;25.73;;;19.30;37.50;;;;;;5097767;28;20326;-69
2020/12/10 00:36:07;;;;;;;45.75;24.63;;;19.20;37.30;;;;;;5096539;28;20070;-69
2020/12/10 00:38:33;;;;;;;42.70;22.77;;;19.10;37.60;;;;;;5097710;28;20355;-68
2020/12/10 00:41:00;;;;;;;48.40;26.77;;;19.00;37.60;;;;;;5097730;28;20466;-68
2020/12/10 00:43:26;;;;;;;53.08;28.35;;;18.90;37.70;;;;;;5093352;28;20028;-68
2020/12/10 00:45:53;;;;;;;56.13;27.42;;;18.80;37.50;;;;;;5088581;28;20166;-68
2020/12/10 00:48:19;;;;;;;50.42;24.73;;;18.70;37.50;;;;;;5092207;28;20017;-68
2020/12/10 00:50:46;;;;;;;40.40;24.20;;;18.50;37.70;;;;;;5100748;28;20024;-69
2020/12/10 00:53:12;;;;;;;50.75;24.75;;;18.40;38.00;;;;;;5092749;28;20035;-68
2020/12/10 00:55:38;;;;;;;53.05;26.60;;;18.30;38.30;;;;;;5096161;28;20130;-68
2020/12/10 00:58:05;;;;;;;44.35;24.20;;;18.20;37.90;;;;;;5089357;28;20110;-68
2020/12/10 01:00:31;;;;;;;46.75;23.52;;;18.00;38.20;;;;;;5096646;28;20025;-68
2020/12/10 01:02:58;;;;;;;43.67;19.38;;;17.90;38.50;;;;;;5088538;28;20024;-68
2020/12/10 01:05:25;;;;;;;36.38;22.10;;;17.70;38.60;;;;;;5091917;28;20031;-69
2020/12/10 01:07:52;;;;;;;42.30;22.40;;;17.60;38.80;;;;;;5083044;28;20043;-68
2020/12/10 01:10:18;;;;;;;58.10;22.35;;;17.50;38.90;;;;;;5083847;28;20055;-68
2020/12/10 01:12:45;;;;;;;43.67;21.92;;;17.40;39.00;;;;;;5081379;28;20422;-68
2020/12/10 01:15:11;;;;;;;37.72;21.17;;;17.30;38.90;;;;;;5089205;28;20030;-68
2020/12/10 01:17:41;;;;;;;43.90;22.83;;;17.20;38.70;;;;;;5090135;28;20023;-68
2020/12/10 01:20:11;;;;;;;54.78;26.35;;;17.10;39.00;;;;;;5088473;28;20114;-68
2020/12/10 01:22:38;;;;;;;47.33;23.95;;;17.10;38.30;;;;;;5093868;28;20107;-68
2020/12/10 01:25:05;;;;;;;51.75;22.75;;;17.00;38.30;;;;;;5096814;28;20032;-69
2020/12/10 01:27:32;;;;;;;73.60;27.23;;;16.90;39.20;;;;;;5095098;28;20012;-68
2020/12/10 01:29:59;;;;;;;53.45;26.60;;;16.80;38.90;;;;;;5081597;28;20032;-68
2020/12/10 01:32:26;;;;;;;46.08;24.60;;;16.70;39.30;;;;;;5092910;28;20365;-68
2020/12/10 01:34:53;;;;;;;48.78;25.70;;;16.60;39.70;;;;;;5091264;28;20389;-68
2020/12/10 01:37:19;;;;;;;49.28;26.55;;;16.60;39.50;;;;;;5094430;28;20111;-68
2020/12/10 01:39:46;;;;;;;49.33;26.90;;;16.50;39.50;;;;;;5093975;28;20457;-68
2020/12/10 01:42:13;;;;;;;48.22;25.77;;;16.50;39.10;;;;;;5090031;28;20039;-68
2020/12/10 01:44:40;;;;;;;68.45;26.60;;;16.50;39.10;;;;;;5089312;28;20059;-68
2020/12/10 01:47:07;;;;;;;50.53;26.40;;;16.40;39.20;;;;;;5095016;28;20024;-68
2020/12/10 01:49:36;;;;;;;54.22;25.15;;;16.30;39.00;;;;;;5084288;28;20082;-68
2020/12/10 01:52:04;;;;;;;56.75;26.42;;;16.20;39.50;;;;;;5089505;28;20437;-68
2020/12/10 01:54:32;;;;;;;59.78;30.38;;;16.20;39.50;;;;;;5086991;28;20028;-67
2020/12/10 01:56:59;;;;;;;49.38;27.95;;;16.30;39.40;;;;;;5088757;28;20032;-68
2020/12/10 01:59:25;;;;;;;49.33;25.73;;;16.40;39.40;;;;;;5094033;28;20365;-68
2020/12/10 02:01:52;;;;;;;51.28;30.45;;;16.30;39.30;;;;;;5084514;28;20372;-67
2020/12/10 02:04:33;;;;;;;52.78;30.05;;;16.20;39.70;;;;;;5085172;28;20032;-70
2020/12/10 02:07:01;;;;;;;51.00;26.92;;;16.10;39.50;;;;;;5085794;28;20024;-70
2020/12/10 02:09:28;;;;;;;48.42;25.42;;;16.00;39.60;;;;;;5089531;28;20464;-67
2020/12/10 02:11:54;;;;;;;51.25;27.35;;;15.90;40.40;;;;;;5092036;28;20957;-70
2020/12/10 02:14:22;;;;;;;51.08;23.63;;;15.80;40.70;;;;;;5095346;28;20106;-70
2020/12/10 02:16:55;;;;;;;50.45;24.58;;;15.70;40.90;;;;;;5092953;28;20021;-70
2020/12/10 02:19:21;;;;;;;46.85;26.20;;;15.70;40.90;;;;;;5090499;28;20039;-70
2020/12/10 02:21:48;;;;;;;48.40;27.48;;;15.60;41.10;;;;;;5088896;28;20346;-70
2020/12/10 02:24:16;;;;;;;50.42;26.38;;;15.60;41.00;;;;;;5085186;28;20025;-68
2020/12/10 02:26:42;;;;;;;46.95;27.90;;;15.50;40.70;;;;;;5097277;28;20024;-67
2020/12/10 02:29:09;;;;;;;59.03;29.73;;;15.60;40.50;;;;;;5083165;28;20026;-69
2020/12/10 02:31:35;;;;;;;53.10;26.55;;;15.60;41.20;;;;;;5090584;28;20016;-68
2020/12/10 02:34:04;;;;;;;50.05;27.77;;;15.50;41.20;;;;;;5093058;28;20093;-69
2020/12/10 02:36:32;;;;;;;54.40;27.35;;;15.50;40.90;;;;;;5085265;28;20495;-67
2020/12/10 02:38:59;;;;;;;74.70;28.08;;;15.40;40.70;;;;;;5092946;28;20407;-68
2020/12/10 02:41:26;;;;;;;51.22;25.05;;;15.30;40.50;;;;;;5080849;28;20039;-67
2020/12/10 02:43:52;;;;;;;54.67;29.27;;;15.10;41.70;;;;;;5080391;28;20036;-67
2020/12/10 02:46:19;;;;;;;53.80;29.55;;;15.00;42.00;;;;;;5088897;28;20028;-67
2020/12/10 02:48:46;;;;;;;71.47;30.52;;;15.00;41.00;;;;;;5086674;28;20027;-68
2020/12/10 02:51:13;;;;;;;48.95;30.48;;;15.10;41.40;;;;;;5091081;28;20021;-68
2020/12/10 02:53:40;;;;;;;61.30;32.00;;;15.20;41.50;;;;;;5086130;28;20473;-68
2020/12/10 02:56:11;;;;;;;60.83;29.27;;;15.20;41.40;;;;;;5091096;28;20403;-69
2020/12/10 02:58:38;;;;;;;60.25;30.95;;;15.10;41.40;;;;;;5084676;28;20047;-68
2020/12/10 03:01:06;;;;;;;58.30;30.30;;;15.00;41.70;;;;;;5087694;28;20069;-68
2020/12/10 03:03:33;;;;;;;57.80;27.17;;;14.90;41.80;;;;;;5092833;28;20096;-68
2020/12/10 03:06:00;;;;;;;61.90;27.67;;;14.80;42.30;;;;;;5094656;28;20012;-68
2020/12/10 03:08:27;;;;;;;52.20;27.05;;;14.80;42.50;;;;;;5086679;28;20017;-68
2020/12/10 03:10:53;;;;;;;57.90;27.33;;;14.80;42.70;;;;;;5107960;28;20024;-68
2020/12/10 03:13:22;;;;;;;60.25;30.27;;;14.90;42.40;;;;;;5092875;28;20148;-68
2020/12/10 03:15:49;;;;;;;50.08;27.52;;;15.00;42.70;;;;;;5082082;28;20036;-68
2020/12/10 03:18:15;;;;;;;56.22;27.85;;;15.00;42.50;;;;;;5098667;28;20027;-68
2020/12/10 03:20:41;;;;;;;45.92;27.35;;;14.90;42.70;;;;;;5094474;28;20035;-69
2020/12/10 03:23:08;;;;;;;46.47;27.40;;;15.00;43.00;;;;;;5095154;28;20453;-68
2020/12/10 03:25:34;;;;;;;44.05;26.15;;;15.10;43.00;;;;;;5090774;28;20028;-68
2020/12/10 03:28:01;;;;;;;50.67;27.05;;;15.00;43.20;;;;;;5094229;28;20093;-67
2020/12/10 03:30:27;;;;;;;51.92;26.92;;;15.10;43.30;;;;;;5087605;28;20024;-68
2020/12/10 03:32:54;;;;;;;51.95;25.33;;;15.00;42.70;;;;;;5093830;28;20028;-69
2020/12/10 03:35:20;;;;;;;44.58;26.10;;;14.80;43.20;;;;;;5081605;28;20028;-68
2020/12/10 03:37:46;;;;;;;41.90;23.52;;;14.90;43.00;;;;;;5093093;28;20025;-68
2020/12/10 03:40:13;;;;;;;57.83;24.33;;;14.70;43.10;;;;;;5114990;28;20032;-68
2020/12/10 03:42:39;;;;;;;45.40;24.10;;;14.60;42.90;;;;;;5095800;28;20463;-68
2020/12/10 03:45:06;;;;;;;43.78;24.52;;;14.60;43.50;;;;;;5092855;28;20028;-68
2020/12/10 03:47:34;;;;;;;47.90;24.95;;;14.70;44.00;;;;;;5086102;28;20032;-68
2020/12/10 03:50:03;;;;;;;54.72;26.00;;;14.80;43.50;;;;;;5089598;28;20044;-68
2020/12/10 03:52:30;;;;;;;54.00;25.20;;;14.70;43.40;;;;;;5089329;28;20028;-69
2020/12/10 03:54:56;;;;;;;45.03;24.40;;;14.50;43.70;;;;;;5092693;28;20586;-69
2020/12/10 03:57:24;;;;;;;41.85;21.85;;;14.50;43.20;;;;;;5091570;28;20369;-69
2020/12/10 03:59:50;;;;;;;39.78;24.08;;;14.60;43.20;;;;;;5102848;28;20102;-69
2020/12/10 04:02:17;;;;;;;42.05;23.50;;;14.70;43.00;;;;;;5090521;28;20088;-69
2020/12/10 04:04:43;;;;;;;43.15;22.27;;;14.60;43.20;;;;;;5092590;28;20032;-69
2020/12/10 04:07:09;;;;;;;52.13;23.20;;;14.50;43.10;;;;;;5092324;28;20327;-69
2020/12/10 04:09:36;;;;;;;46.33;25.48;;;14.60;43.50;;;;;;5094290;28;20399;-69
2020/12/10 04:12:02;;;;;;;47.88;22.65;;;14.80;43.10;;;;;;5094684;28;20016;-69
2020/12/10 04:14:29;;;;;;;38.70;21.65;;;15.00;42.90;;;;;;5093677;28;20326;-69
2020/12/10 04:16:57;;;;;;;45.72;21.73;;;15.00;42.80;;;;;;5095535;28;20404;-69
2020/12/10 04:19:24;;;;;;;38.72;20.48;;;14.90;42.50;;;;;;5093071;28;20575;-69
2020/12/10 04:21:50;;;;;;;41.15;24.52;;;14.70;42.60;;;;;;5097217;28;20423;-69
2020/12/10 04:24:17;;;;;;;31.80;20.92;;;14.60;42.90;;;;;;5096121;28;20412;-71
2020/12/10 04:26:43;;;;;;;43.13;20.63;;;15.00;42.60;;;;;;5092103;28;20013;-69
2020/12/10 04:29:13;;;;;;;37.50;19.40;;;15.00;42.00;;;;;;5094258;28;20024;-69
2020/12/10 04:31:42;;;;;;;35.63;21.27;;;14.80;42.00;;;;;;5097936;28;20051;-69
2020/12/10 04:34:09;;;;;;;42.13;21.25;;;14.80;42.00;;;;;;5095843;28;20020;-69
2020/12/10 04:36:35;;;;;;;33.33;21.02;;;14.80;42.10;;;;;;5096203;28;20028;-69
2020/12/10 04:39:03;;;;;;;42.72;19.50;;;14.80;42.00;;;;;;5097774;28;20103;-69
2020/12/10 04:41:33;;;;;;;43.88;18.60;;;14.90;41.70;;;;;;5093089;28;20032;-68
2020/12/10 04:44:02;;;;;;;34.92;20.95;;;14.70;42.00;;;;;;5084447;28;20024;-68
2020/12/10 04:46:30;;;;;;;30.58;19.85;;;14.90;42.20;;;;;;5087908;28;20054;-68
2020/12/10 04:48:59;;;;;;;35.88;19.63;;;14.90;42.20;;;;;;5090566;28;20016;-68
2020/12/10 04:51:28;;;;;;;39.35;18.48;;;14.80;41.90;;;;;;5094075;28;20453;-68
2020/12/10 04:53:54;;;;;;;32.55;18.38;;;14.80;42.00;;;;;;5084692;28;20033;-68
2020/12/10 04:56:21;;;;;;;32.47;17.10;;;14.70;41.90;;;;;;5084633;28;20461;-68
2020/12/10 04:58:50;;;;;;;31.80;17.42;;;14.60;42.00;;;;;;5092783;28;20035;-68
2020/12/10 05:01:17;;;;;;;36.38;16.85;;;14.60;42.10;;;;;;5090862;28;20032;-68
2020/12/10 05:03:46;;;;;;;27.67;14.18;;;14.60;42.10;;;;;;5093617;28;20389;-68
2020/12/10 05:06:14;;;;;;;40.28;19.30;;;14.50;42.20;;;;;;5091793;28;20062;-68
2020/12/10 05:08:43;;;;;;;33.33;16.73;;;14.30;42.40;;;;;;5086607;28;20115;-68
2020/12/10 05:11:12;;;;;;;23.48;15.75;;;14.30;42.30;;;;;;5089491;28;20342;-68
2020/12/10 05:13:38;;;;;;;24.75;14.52;;;14.10;43.30;;;;;;5092306;28;20055;-68
2020/12/10 05:16:22;;;;;;;30.88;16.20;;;14.10;43.00;;;;;;5093036;28;20067;-68
2020/12/10 05:18:48;;;;;;;36.28;17.25;;;14.20;42.80;;;;;;5095183;28;20040;-68
2020/12/10 05:21:16;;;;;;;28.35;13.77;;;14.30;42.10;;;;;;5094770;28;20024;-68
2020/12/10 05:23:43;;;;;;;27.85;13.63;;;14.10;42.70;;;;;;5094238;28;20093;-67
2020/12/10 05:26:10;;;;;;;23.17;13.98;;;13.80;43.40;;;;;;5091609;28;20450;-68
2020/12/10 05:28:43;;;;;;;24.95;15.32;;;13.80;42.70;;;;;;5086643;28;20513;-68
2020/12/10 05:31:10;;;;;;;;;;;14.20;42.50;;;;;;5092700;28;20086;-68
2020/12/10 05:33:51;;;;;;;25.30;13.30;;;14.30;42.00;;;;;;5095460;28;19919;-68
2020/12/10 05:36:17;;;;;;;24.55;12.23;;;14.10;42.20;;;;;;5084697;28;20023;-68
2020/12/10 05:39:08;;;;;;;27.17;14.40;;;13.90;43.10;;;;;;5085054;28;20106;-68
2020/12/10 05:41:36;;;;;;;26.45;14.65;;;14.00;42.70;;;;;;5088943;28;20028;-68
2020/12/10 05:44:23;;;;;;;26.65;13.07;;;14.10;42.00;;;;;;5086189;28;20448;-69
2020/12/10 05:46:53;;;;;;;26.50;13.63;;;13.90;42.10;;;;;;5089604;28;20035;-68
2020/12/10 05:49:20;;;;;;;30.13;14.63;;;13.80;42.50;;;;;;5092375;28;20438;-69
2020/12/10 05:51:48;;;;;;;32.90;14.57;;;14.00;42.50;;;;;;5092526;28;20028;-68
2020/12/10 05:54:17;;;;;;;26.73;13.20;;;14.10;41.90;;;;;;5086890;28;20028;-68
2020/12/10 05:56:56;;;;;;;22.83;12.10;;;14.10;42.10;;;;;;5086346;28;20030;-69
2020/12/10 05:59:27;;;;;;;22.70;12.23;;;13.80;42.80;;;;;;5093913;28;20460;-69
2020/12/10 06:01:58;;;;;;;29.15;12.57;;;13.70;43.20;;;;;;5092168;28;20433;-68
2020/12/10 06:04:28;;;;;;;24.02;13.05;;;13.80;42.50;;;;;;5095331;28;20032;-68
2020/12/10 06:06:57;;;;;;;23.77;12.73;;;13.90;42.00;;;;;;5075493;28;20111;-68
2020/12/10 06:09:24;;;;;;;24.23;11.93;;;13.90;42.00;;;;;;5093710;28;20107;-68
2020/12/10 06:12:01;;;;;;;18.20;11.13;;;13.80;42.10;;;;;;5094645;28;20024;-68
2020/12/10 06:14:27;;;;;;;25.27;13.02;;;13.70;42.10;;;;;;5089644;28;20107;-68
2020/12/10 06:17:10;;;;;;;16.80;11.15;;;13.70;42.40;;;;;;5089625;28;20032;-68
2020/12/10 06:19:37;;;;;;;24.88;11.82;;;13.80;42.20;;;;;;5080441;28;20020;-68
2020/12/10 06:22:33;;;;;;;26.98;11.98;;;13.90;42.00;;;;;;5094345;28;20123;-68
2020/12/10 06:25:04;;;;;;;19.95;11.25;;;14.00;41.80;;;;;;5087773;28;20035;-68
2020/12/10 06:27:36;;;;;;;19.20;10.88;;;13.90;41.90;;;;;;5087311;28;20038;-69
2020/12/10 06:30:17;;;;;;;26.13;11.55;;;13.80;41.90;;;;;;5091288;28;20089;-69
2020/12/10 06:32:51;;;;;;;16.70;8.30;;;13.90;41.90;;;;;;5085153;28;20085;-68
2020/12/10 06:35:47;;;;;;;20.42;10.63;;;13.80;42.00;;;;;;5083031;28;20487;-68
2020/12/10 06:38:13;;;;;;;37.17;12.90;;;13.60;42.30;;;;;;5101802;28;20050;-68
2020/12/10 06:40:42;;;;;;;18.08;9.25;;;13.50;42.50;;;;;;5084700;28;20323;-68
2020/12/10 06:43:11;;;;;;;19.05;9.93;;;13.60;42.70;;;;;;5084323;28;20024;-68
2020/12/10 06:45:40;;;;;;;19.08;8.57;;;13.30;43.10;;;;;;5094185;28;20346;-68
2020/12/10 06:48:10;;;;;;;14.73;8.65;;;13.20;43.40;;;;;;5093444;28;20016;-69
2020/12/10 06:50:39;;;;;;;28.05;10.48;;;13.10;43.40;;;;;;5095387;28;20018;-68
2020/12/10 06:53:15;;;;;;;22.60;9.80;;;13.20;43.40;;;;;;5093108;28;20078;-68
2020/12/10 06:55:57;;;;;;;13.25;8.70;;;13.10;43.00;;;;;;5093284;28;20026;-68
2020/12/10 06:58:48;;;;;;;12.63;8.18;;;12.90;44.90;;;;;;5109661;28;20495;-68
2020/12/10 07:01:26;;;;;;;13.25;7.97;;;12.60;44.60;;;;;;5072002;28;20032;-68
2020/12/10 07:06:44;;;;;;;15.63;8.00;;;12.60;43.80;;;;;;5089585;28;20457;-67
2020/12/10 07:09:14;;;;;;;13.18;8.57;;;12.60;45.30;;;;;;5091267;28;20038;-67
2020/12/10 07:11:46;;;;;;;16.40;8.38;;;12.50;45.70;;;;;;5086648;28;20020;-69
2020/12/10 07:14:27;;;;;;;13.07;8.25;;;12.40;44.80;;;;;;5078829;28;20040;-67
2020/12/10 07:16:55;;;;;;;12.15;8.25;;;12.30;45.00;;;;;;5085278;28;20517;-67
2020/12/10 07:19:22;;;;;;;20.15;9.05;;;12.40;45.20;;;;;;5088193;28;20458;-67
2020/12/10 07:21:49;;;;;;;15.13;8.93;;;12.40;43.80;;;;;;5083606;28;20020;-68
2020/12/10 07:24:16;;;;;;;20.80;8.48;;;12.30;43.80;;;;;;5088224;28;20433;-67
2020/12/10 07:26:43;;;;;;;11.18;8.02;;;12.30;44.10;;;;;;5089845;28;20032;-69
2020/12/10 07:29:09;;;;;;;12.02;7.38;;;12.30;44.20;;;;;;5092277;28;20369;-68
2020/12/10 07:31:37;;;;;;;16.83;8.02;;;12.30;44.30;;;;;;5092179;28;20031;-68
2020/12/10 07:34:11;;;;;;;21.33;9.50;;;12.30;44.40;;;;;;5082415;28;20457;-68
2020/12/10 07:36:51;;;;;;;16.30;9.88;;;12.40;45.10;;;;;;5082860;28;20032;-68
2020/12/10 07:39:32;;;;;;;15.43;8.90;;;12.20;44.60;;;;;;5072868;28;20478;-68
2020/12/10 07:42:08;;;;;;;16.40;8.68;;;12.30;44.60;;;;;;5088679;28;20112;-68
2020/12/10 07:44:35;;;;;;;16.27;8.05;;;12.40;45.20;;;;;;5087636;28;20349;-68
2020/12/10 07:47:12;;;;;;;16.23;8.95;;;12.30;44.60;;;;;;5090364;28;20457;-68
2020/12/10 07:49:39;;;;;;;13.40;7.28;;;12.20;44.70;;;;;;5090307;28;20031;-68
2020/12/10 07:52:11;;;;;;;13.07;7.57;;;12.00;45.30;;;;;;5091894;28;20349;-68
2020/12/10 07:54:44;;;;;;;;;;;12.00;45.10;;;;;;5097376;28;20407;-68
2020/12/10 07:57:29;;;;;;;12.30;8.25;;;12.10;45.70;;;;;;5093217;28;19908;-68
2020/12/10 08:00:09;;;;;;;12.55;8.63;;;12.00;45.30;;;;;;5096471;28;20039;-68
2020/12/10 08:02:58;;;;;;;16.60;8.80;;;11.80;46.20;;;;;;5074028;28;20025;-68
2020/12/10 08:05:25;;;;;;;17.02;9.30;;;11.70;45.30;;;;;;5086686;28;20036;-68
2020/12/10 08:07:53;;;;;;;16.60;9.27;;;12.00;46.80;;;;;;5097516;28;20030;-68
2020/12/10 08:10:30;;;;;;;11.18;8.20;;;12.10;46.40;;;;;;5097033;28;20024;-68
2020/12/10 08:13:18;;;;;;;15.63;8.32;;;12.20;46.20;;;;;;5095508;28;20457;-68
2020/12/10 08:15:49;;;;;;;15.52;9.80;;;12.10;46.60;;;;;;5090081;28;20151;-68
2020/12/10 08:18:19;;;;;;;17.48;9.65;;;12.10;47.40;;;;;;5089608;28;20031;-68
2020/12/10 08:20:52;;;;;;;21.15;11.30;;;12.10;46.90;;;;;;5087359;28;20466;-68
2020/12/10 08:23:20;;;;;;;19.98;10.20;;;12.10;46.90;;;;;;5089514;28;20032;-68
2020/12/10 08:26:10;;;;;;;27.25;12.77;;;12.10;46.70;;;;;;5096484;28;20031;-68
2020/12/10 08:28:37;;;;;;;20.92;12.20;;;12.10;46.60;;;;;;5092994;28;20503;-68
2020/12/10 08:31:03;;;;;;;18.92;9.70;;;12.00;47.30;;;;;;5095798;28;20111;-68
2020/12/10 08:33:38;;;;;;;22.70;11.18;;;12.00;46.70;;;;;;5095388;28;20073;-68
2020/12/10 08:36:06;;;;;;;17.70;10.55;;;11.90;46.80;;;;;;5087950;28;20024;-68
2020/12/10 08:38:32;;;;;;;19.15;10.90;;;11.80;47.40;;;;;;5074118;28;20032;-68
2020/12/10 08:41:02;;;;;;;24.77;11.48;;;11.80;47.50;;;;;;5091646;28;20020;-68
2020/12/10 08:43:29;;;;;;;22.13;10.70;;;12.00;47.20;;;;;;5089008;28;20485;-68
2020/12/10 08:45:55;;;;;;;23.77;10.52;;;12.00;47.00;;;;;;5094943;28;20032;-68
2020/12/10 08:48:29;;;;;;;22.42;11.32;;;11.80;47.00;;;;;;5091904;28;20020;-68
2020/12/10 08:50:57;;;;;;;20.52;11.43;;;11.80;47.10;;;;;;5093970;28;20043;-68
2020/12/10 08:53:24;;;;;;;21.33;13.13;;;11.80;48.00;;;;;;5092652;28;20457;-68
2020/12/10 08:55:56;;;;;;;20.13;10.93;;;11.90;47.50;;;;;;5088637;28;20101;-68
2020/12/10 08:58:28;;;;;;;19.52;9.70;;;11.60;47.70;;;;;;5091954;28;20020;-68
2020/12/10 09:00:56;;;;;;;22.95;12.32;;;11.40;47.80;;;;;;5094899;28;20028;-68
2020/12/10 09:03:24;;;;;;;27.35;13.23;;;11.40;47.50;;;;;;5094877;28;20085;-68
2020/12/10 09:05:51;;;;;;;29.67;15.95;;;11.50;47.80;;;;;;5095506;28;20031;-68
2020/12/10 09:08:18;;;;;;;28.73;15.35;;;11.50;48.10;;;;;;5090989;28;20031;-68
2020/12/10 09:10:45;;;;;;;35.58;16.50;;;11.50;47.70;;;;;;5094469;28;20457;-68
2020/12/10 09:13:11;;;;;;;28.35;13.57;;;11.70;48.40;;;;;;5092941;28;20107;-68
2020/12/10 09:15:38;;;;;;;27.02;15.15;;;11.70;48.10;;;;;;5100219;28;20099;-68
2020/12/10 09:18:05;;;;;;;29.98;15.30;;;11.60;47.60;;;;;;5084613;28;20024;-68
2020/12/10 09:20:31;;;;;;;27.38;14.93;;;11.50;48.10;;;;;;5090607;28;20469;-68
2020/12/10 09:22:57;;;;;;;23.10;12.88;;;11.40;48.60;;;;;;5092259;28;20445;-68
2020/12/10 09:25:38;;;;;;;25.88;13.55;;;11.20;48.20;;;;;;5082880;28;20027;-68
2020/12/10 09:28:08;;;;;;;26.55;14.55;;;11.10;48.20;;;;;;5088267;28;20094;-68
2020/12/10 09:30:35;;;;;;;30.60;14.63;;;11.00;47.70;;;;;;5090761;28;20039;-68
2020/12/10 09:33:01;;;;;;;28.75;14.88;;;11.10;48.00;;;;;;5094093;28;20028;-68
2020/12/10 09:35:27;;;;;;;21.75;14.50;;;11.00;48.70;;;;;;5089357;28;20024;-68
2020/12/10 09:37:55;;;;;;;27.50;16.00;;;11.10;48.10;;;;;;5086551;28;20524;-68
2020/12/10 09:40:21;;;;;;;31.02;16.65;;;11.10;48.60;;;;;;5089735;28;20038;-68
2020/12/10 09:42:50;;;;;;;30.77;15.77;;;11.40;49.00;;;;;;5086598;28;20031;-68
2020/12/10 09:45:18;;;;;;;33.58;15.52;;;11.30;48.50;;;;;;5090560;28;20033;-68
2020/12/10 09:47:46;;;;;;;29.05;16.30;;;11.40;49.00;;;;;;5093411;28;20012;-68
2020/12/10 09:50:25;;;;;;;29.10;17.17;;;11.40;48.50;;;;;;5092539;28;20039;-68
2020/12/10 09:53:04;;;;;;;25.38;14.90;;;11.40;49.00;;;;;;5087134;28;20099;-68
2020/12/10 09:58:18;;;;;;;27.70;16.08;;;11.30;48.40;;;;;;5090832;28;20407;-68
2020/12/10 10:00:53;;;;;;;28.98;17.48;;;11.40;49.20;;;;;;5091108;28;20020;-68
2020/12/10 10:03:21;;;;;;;32.80;15.68;;;11.50;48.80;;;;;;5089768;28;20492;-68
2020/12/10 10:05:47;;;;;;;25.33;15.38;;;11.40;48.70;;;;;;5096022;28;20073;-68
2020/12/10 10:08:14;;;;;;;21.90;13.35;;;11.30;48.90;;;;;;5091748;28;20027;-68
2020/12/10 10:10:40;;;;;;;33.03;16.40;;;11.20;48.70;;;;;;5089696;28;20024;-68
2020/12/10 10:13:07;;;;;;;31.88;16.02;;;11.40;49.60;;;;;;5092784;28;20077;-68
2020/12/10 10:15:33;;;;;;;27.45;15.43;;;11.50;49.10;;;;;;5095744;28;20032;-68
2020/12/10 10:18:01;;;;;;;25.75;14.95;;;11.60;49.10;;;;;;5094364;28;20048;-68
2020/12/10 10:20:28;;;;;;;26.80;14.20;;;11.60;49.20;;;;;;5093741;28;20454;-68
2020/12/10 10:23:14;;;;;;;24.30;15.27;;;11.60;49.10;;;;;;5093748;28;20024;-68
2020/12/10 10:25:43;;;;;;;28.80;15.48;;;11.60;49.50;;;;;;5085435;28;20388;-68
2020/12/10 10:28:11;;;;;;;29.08;16.60;;;11.60;49.00;;;;;;5090602;28;20032;-68
2020/12/10 10:30:37;;;;;;;30.58;14.88;;;11.50;48.80;;;;;;5091284;28;20102;-68
2020/12/10 10:33:22;;;;;;;31.83;15.18;;;11.40;49.00;;;;;;5093741;28;20071;-68
2020/12/10 10:35:48;;;;;;;26.35;16.92;;;11.50;49.30;;;;;;5095130;28;20361;-68
2020/12/10 10:38:16;;;;;;;30.02;13.68;;;11.60;49.10;;;;;;5091962;28;20042;-68
2020/12/10 10:40:47;;;;;;;27.67;15.02;;;11.80;49.20;;;;;;5093010;28;20382;-68
2020/12/10 10:43:13;;;;;;;23.70;13.13;;;11.80;48.80;;;;;;5092963;28;20066;-68
2020/12/10 10:45:43;;;;;;;26.13;13.65;;;11.90;48.80;;;;;;5093135;28;20035;-68
2020/12/10 10:48:09;;;;;;;28.05;14.25;;;11.80;48.80;;;;;;5077022;28;20032;-68
2020/12/10 10:50:37;;;;;;;26.17;15.20;;;11.90;48.90;;;;;;5089254;28;20494;-68
2020/12/10 10:53:07;;;;;;;19.50;13.27;;;11.90;48.90;;;;;;5093093;28;20032;-68
2020/12/10 10:55:53;;;;;;;30.90;15.35;;;12.00;48.60;;;;;;5089726;28;20028;-68
2020/12/10 10:58:21;;;;;;;27.15;14.68;;;12.10;48.70;;;;;;5091035;28;21298;-68
2020/12/10 11:00:48;;;;;;;23.48;13.07;;;12.10;48.50;;;;;;5090536;28;20115;-68
2020/12/10 11:03:14;;;;;;;22.98;13.27;;;12.20;48.70;;;;;;5089922;28;20599;-69
2020/12/10 11:05:52;;;;;;;20.63;12.30;;;12.20;48.60;;;;;;5090997;28;20016;-68
2020/12/10 11:08:19;;;;;;;27.05;12.32;;;12.20;48.30;;;;;;5088339;28;20945;-68
2020/12/10 11:10:45;;;;;;;28.75;12.43;;;12.20;48.60;;;;;;5095030;28;20020;-68
2020/12/10 11:13:12;;;;;;;21.88;13.30;;;12.30;48.40;;;;;;5091984;28;20020;-68
2020/12/10 11:15:38;;;;;;;22.90;12.98;;;12.30;48.50;;;;;;5094146;28;20490;-68
2020/12/10 11:18:05;;;;;;;23.23;14.23;;;12.40;48.20;;;;;;5092682;28;20038;-68
2020/12/10 11:20:39;;;;;;;26.17;13.45;;;12.40;48.30;;;;;;5091837;28;20027;-68
2020/12/10 11:23:05;;;;;;;24.10;12.48;;;12.40;48.30;;;;;;5093268;28;20032;-68
2020/12/10 11:25:31;;;;;;;25.67;11.80;;;12.40;48.40;;;;;;5086118;28;20016;-68
2020/12/10 11:27:58;;;;;;;20.85;11.80;;;12.30;48.20;;;;;;5096458;28;20017;-68
2020/12/10 11:30:29;;;;;;;19.67;11.17;;;12.40;48.30;;;;;;5097619;28;20506;-68
2020/12/10 11:32:56;;;;;;;22.00;10.68;;;12.30;48.20;;;;;;5096642;28;20352;-68
2020/12/10 11:35:22;;;;;;;21.05;10.50;;;12.10;48.20;;;;;;5096395;28;20342;-68
2020/12/10 11:37:55;;;;;;;23.90;10.50;;;12.10;48.60;;;;;;5094753;28;20423;-68
2020/12/10 11:40:23;;;;;;;16.75;9.27;;;12.10;48.80;;;;;;5096196;28;20024;-68
2020/12/10 11:43:11;;;;;;;27.33;10.32;;;12.30;48.50;;;;;;5091443;28;20027;-68
2020/12/10 11:45:37;;;;;;;15.27;10.40;;;12.30;48.50;;;;;;5091651;28;20064;-68
2020/12/10 11:48:07;;;;;;;23.95;10.75;;;12.20;48.40;;;;;;5097753;28;20460;-68
2020/12/10 11:50:35;;;;;;;20.05;10.40;;;12.20;48.70;;;;;;5090402;28;20509;-68
2020/12/10 11:53:02;;;;;;;25.33;11.20;;;12.30;48.80;;;;;;5094907;28;20074;-68
2020/12/10 11:55:33;;;;;;;16.10;9.75;;;12.30;48.40;;;;;;5096615;28;20024;-68
2020/12/10 11:58:19;;;;;;;19.58;10.65;;;12.20;48.50;;;;;;5095480;28;20024;-68
2020/12/10 12:01:07;;;;;;;26.23;11.35;;;12.30;48.40;;;;;;5095729;28;20373;-68
2020/12/10 12:03:41;;;;;;;17.00;10.48;;;12.20;48.30;;;;;;5097417;28;20027;-68
2020/12/10 12:06:07;;;;;;;18.80;11.35;;;12.20;48.90;;;;;;5096353;28;20017;-68
2020/12/10 12:08:35;;;;;;;24.02;11.82;;;12.40;48.50;;;;;;5095052;28;20460;-68
2020/12/10 12:11:02;;;;;;;22.10;12.57;;;12.50;48.20;;;;;;5094425;28;20434;-68
2020/12/10 12:13:30;;;;;;;21.95;10.25;;;12.40;48.00;;;;;;5096902;28;20020;-68
2020/12/10 12:15:57;;;;;;;24.25;12.02;;;12.40;48.10;;;;;;5098204;28;20039;-68
2020/12/10 12:18:27;;;;;;;18.42;10.52;;;12.40;48.20;;;;;;5095838;28;20031;-68
2020/12/10 12:20:53;;;;;;;16.58;9.73;;;12.40;48.30;;;;;;5094300;28;20058;-68
2020/12/10 12:23:23;;;;;;;20.50;11.68;;;12.30;48.50;;;;;;5093955;28;20024;-68
2020/12/10 12:25:54;;;;;;;17.17;10.57;;;12.30;48.40;;;;;;5089024;28;20105;-68
2020/12/10 12:28:22;;;;;;;18.83;9.80;;;12.30;48.40;;;;;;5095941;28;20027;-68
2020/12/10 12:30:52;;;;;;;20.58;10.48;;;12.20;48.40;;;;;;5095738;28;20047;-68
2020/12/10 12:33:21;;;;;;;18.38;10.65;;;12.30;48.70;;;;;;5093392;28;20036;-68
2020/12/10 12:35:49;;;;;;;15.10;9.15;;;12.30;48.50;;;;;;5094568;28;20039;-68
2020/12/10 12:38:17;;;;;;;18.48;10.57;;;12.30;48.30;;;;;;5092144;28;20032;-68
2020/12/10 12:40:45;;;;;;;16.90;9.32;;;12.30;48.30;;;;;;5093525;28;20107;-68
2020/12/10 12:43:12;;;;;;;19.83;9.60;;;12.40;48.40;;;;;;5096577;28;20024;-68
2020/12/10 12:45:41;;;;;;;17.20;9.10;;;12.40;48.00;;;;;;5097511;28;20035;-68